Time;durP1;ratioP1;P1;durP2;ratioP2;P2;SDS_P1;SDS_P2;PMS_P1;PMS_P2;Temp;Humidity;BMP_temperature;BMP_pressure;BME280_temperature;BME280_humidity;BME280_pressure;Samples;Min_cycle;Max_cycle;Signal;HPM_P1;HPM_P2
2022/01/15 00:01:56;;;;;;;17.70;7.00;;;6.40;99.90;;;;;;5092237;28;20058;-78
2022/01/15 00:04:22;;;;;;;15.68;7.70;;;6.50;99.90;;;;;;5088529;28;20041;-78
2022/01/15 00:06:48;;;;;;;17.60;7.88;;;6.30;99.90;;;;;;5086739;28;20051;-78
2022/01/15 00:09:15;;;;;;;14.65;7.20;;;6.40;99.90;;;;;;5097437;28;20042;-78
2022/01/15 00:11:41;;;;;;;18.15;7.63;;;6.40;99.90;;;;;;5096520;28;20058;-78
2022/01/15 00:14:25;;;;;;;19.13;8.00;;;6.40;99.90;;;;;;5091889;28;20044;-77
2022/01/15 00:17:06;;;;;;;18.58;8.73;;;6.40;99.90;;;;;;5078442;28;20036;-78
2022/01/15 00:19:43;;;;;;;15.90;7.18;;;6.40;99.90;;;;;;5085088;28;20040;-78
2022/01/15 00:22:11;;;;;;;14.13;6.60;;;6.40;99.90;;;;;;5080350;28;20571;-78
2022/01/15 00:24:37;;;;;;;18.88;8.30;;;6.40;99.90;;;;;;5092841;28;20048;-79
2022/01/15 00:27:04;;;;;;;16.67;7.65;;;6.40;99.90;;;;;;5080464;28;20037;-79
2022/01/15 00:29:31;;;;;;;16.08;7.53;;;6.30;99.90;;;;;;5084685;28;20059;-78
2022/01/15 00:31:58;;;;;;;15.90;7.13;;;6.30;99.90;;;;;;5080397;28;20071;-78
2022/01/15 00:34:24;;;;;;;16.27;7.05;;;6.30;99.90;;;;;;5081030;28;20048;-78
2022/01/15 00:36:50;;;;;;;15.73;6.97;;;6.30;99.90;;;;;;5092286;28;20158;-79
2022/01/15 00:39:16;;;;;;;17.98;7.63;;;6.30;99.90;;;;;;5088033;28;20040;-79
2022/01/15 00:41:41;;;;;;;15.73;6.38;;;6.30;99.90;;;;;;5101169;28;20062;-79
2022/01/15 00:44:07;;;;;;;13.93;6.15;;;6.30;99.90;;;;;;5091322;28;20041;-79
2022/01/15 00:46:33;;;;;;;14.90;6.07;;;6.30;99.90;;;;;;5080677;28;20044;-79
2022/01/15 00:48:59;;;;;;;14.80;6.72;;;6.30;99.90;;;;;;5081907;28;20056;-79
2022/01/15 00:51:25;;;;;;;14.00;5.70;;;6.30;99.90;;;;;;5097401;28;20277;-79
2022/01/15 00:53:50;;;;;;;17.27;6.68;;;6.30;99.90;;;;;;5089651;28;20044;-79
2022/01/15 00:56:16;;;;;;;12.93;6.07;;;6.30;99.90;;;;;;5116381;28;20043;-78
2022/01/15 00:58:42;;;;;;;11.63;5.68;;;6.30;99.90;;;;;;5085688;28;20032;-79
2022/01/15 01:01:08;;;;;;;13.43;5.32;;;6.30;99.90;;;;;;5089491;28;20104;-79
2022/01/15 01:03:33;;;;;;;12.07;5.25;;;6.30;99.90;;;;;;5083227;28;20047;-78
2022/01/15 01:05:59;;;;;;;12.15;5.32;;;6.30;99.90;;;;;;5089141;28;20048;-79
2022/01/15 01:08:25;;;;;;;13.68;6.20;;;6.30;99.90;;;;;;5085798;28;20094;-79
2022/01/15 01:10:59;;;;;;;16.40;5.82;;;6.30;99.90;;;;;;5082342;28;20033;-78
2022/01/15 01:24:11;;;;;;;10.05;5.03;;;6.40;99.90;;;;;;5083544;28;20603;-79
2022/01/15 01:31:56;;;;;;;12.02;5.00;;;6.30;99.90;;;;;;5089935;28;20055;-79
2022/01/15 01:34:25;;;;;;;13.60;5.60;;;6.30;99.90;;;;;;5080375;28;20040;-79
2022/01/15 01:39:20;;;;;;;11.68;4.60;;;6.20;99.90;;;;;;5080823;28;20052;-79
2022/01/15 01:42:07;;;;;;;12.55;4.95;;;6.30;99.90;;;;;;5081058;28;20539;-79
2022/01/15 01:44:38;;;;;;;12.50;5.10;;;6.30;99.90;;;;;;5081146;28;20084;-80
2022/01/15 01:47:08;;;;;;;11.60;5.30;;;6.30;99.90;;;;;;5079854;28;20048;-80
2022/01/15 01:49:34;;;;;;;12.57;4.80;;;6.20;99.90;;;;;;5080918;28;20049;-80
2022/01/15 01:51:59;;;;;;;12.90;4.93;;;6.20;99.90;;;;;;5080634;28;20128;-79
2022/01/15 01:54:25;;;;;;;9.68;4.30;;;6.30;99.90;;;;;;5086263;28;20044;-79
2022/01/15 01:56:51;;;;;;;7.30;3.45;;;6.20;99.90;;;;;;5102894;28;20048;-79
2022/01/15 01:59:17;;;;;;;8.18;3.92;;;6.20;99.90;;;;;;5080242;28;20091;-79
2022/01/15 02:01:44;;;;;;;10.70;4.53;;;6.20;99.90;;;;;;5079621;28;20096;-80
2022/01/15 02:04:09;;;;;;;9.82;4.22;;;6.20;99.90;;;;;;5078050;28;20040;-80
2022/01/15 02:06:36;;;;;;;12.05;4.80;;;6.30;99.90;;;;;;5095741;28;20104;-79
2022/01/15 02:09:06;;;;;;;8.65;4.18;;;6.30;99.90;;;;;;5079629;28;20128;-79
2022/01/15 02:11:31;;;;;;;10.40;5.25;;;6.30;99.90;;;;;;5079300;28;20090;-80
2022/01/15 02:13:57;;;;;;;9.35;4.00;;;6.40;99.90;;;;;;5078949;28;20455;-79
2022/01/15 02:16:23;;;;;;;9.77;4.55;;;6.40;99.90;;;;;;5086863;28;20040;-79
2022/01/15 02:18:53;;;;;;;10.75;4.78;;;6.40;99.90;;;;;;5083569;28;20045;-79
2022/01/15 02:23:50;;;;;;;8.77;4.30;;;6.40;99.90;;;;;;5080709;28;20091;-78
2022/01/15 02:26:37;;;;;;;11.10;4.20;;;6.50;99.90;;;;;;5086099;28;20048;-79
2022/01/15 02:29:03;;;;;;;8.90;3.70;;;6.40;99.90;;;;;;5086984;28;20059;-79
2022/01/15 02:31:31;;;;;;;7.75;3.45;;;6.40;99.90;;;;;;5079688;28;20047;-78
2022/01/15 02:33:59;;;;;;;7.05;3.60;;;6.40;99.90;;;;;;5082976;28;20103;-79
2022/01/15 02:36:30;;;;;;;6.63;3.08;;;6.40;99.90;;;;;;5080434;28;20055;-79
2022/01/15 02:38:56;;;;;;;6.35;3.38;;;6.40;99.90;;;;;;5079542;28;20420;-78
2022/01/15 02:41:30;;;;;;;8.27;3.50;;;6.30;99.90;;;;;;5080559;28;20037;-78
2022/01/15 02:43:57;;;;;;;8.40;4.40;;;6.40;99.90;;;;;;5086154;28;20130;-78
2022/01/15 02:48:52;;;;;;;10.05;4.10;;;6.40;99.90;;;;;;5077589;28;20057;-78
2022/01/15 02:51:20;;;;;;;8.93;4.05;;;6.40;99.90;;;;;;5095470;28;20110;-78
2022/01/15 02:53:54;;;;;;;12.35;4.53;;;6.40;99.90;;;;;;5081197;28;20076;-78
2022/01/15 02:56:28;;;;;;;9.15;3.72;;;6.40;99.90;;;;;;5117406;28;20119;-79
2022/01/15 02:58:54;;;;;;;11.05;4.10;;;6.30;99.90;;;;;;5104473;28;20055;-79
2022/01/15 03:01:20;;;;;;;8.88;3.85;;;6.30;99.90;;;;;;5087111;28;20055;-78
2022/01/15 03:03:46;;;;;;;8.20;3.63;;;6.30;99.90;;;;;;5077478;28;20549;-78
2022/01/15 03:06:14;;;;;;;7.25;3.38;;;6.30;99.90;;;;;;5079827;28;20032;-79
2022/01/15 03:08:40;;;;;;;10.32;3.85;;;6.30;99.90;;;;;;5090971;28;20040;-79
2022/01/15 03:11:07;;;;;;;8.55;4.05;;;6.30;99.90;;;;;;5086820;28;20052;-79
2022/01/15 03:13:37;;;;;;;6.45;3.08;;;6.30;99.90;;;;;;5087002;28;20076;-79
2022/01/15 03:16:03;;;;;;;7.85;3.55;;;6.30;99.90;;;;;;5086392;28;20048;-79
2022/01/15 03:18:29;;;;;;;7.72;3.50;;;6.30;99.90;;;;;;5086236;28;20112;-79
2022/01/15 03:20:54;;;;;;;9.02;3.65;;;6.30;99.90;;;;;;5099656;28;20036;-79
2022/01/15 03:23:20;;;;;;;8.32;3.78;;;6.40;99.90;;;;;;5081920;28;20056;-79
2022/01/15 03:25:46;;;;;;;9.52;3.88;;;6.40;99.90;;;;;;5076451;28;20048;-79
2022/01/15 03:28:12;;;;;;;5.75;3.38;;;6.40;99.90;;;;;;5079682;28;20032;-79
2022/01/15 03:30:38;;;;;;;7.40;3.60;;;6.40;99.90;;;;;;5077189;28;20079;-79
2022/01/15 03:33:04;;;;;;;7.97;3.88;;;6.30;99.90;;;;;;5090746;28;20063;-79
2022/01/15 03:35:30;;;;;;;8.70;4.25;;;6.30;99.90;;;;;;5078430;28;20036;-79
2022/01/15 03:37:56;;;;;;;7.45;3.30;;;6.20;99.90;;;;;;5079043;28;20101;-79
2022/01/15 03:40:22;;;;;;;8.63;3.80;;;6.20;99.90;;;;;;5083804;28;20032;-79
2022/01/15 03:42:48;;;;;;;9.18;4.05;;;6.20;99.90;;;;;;5089213;28;20041;-79
2022/01/15 03:45:15;;;;;;;8.60;3.72;;;6.20;99.90;;;;;;5061233;28;20040;-79
2022/01/15 03:47:42;;;;;;;7.78;3.63;;;6.20;99.90;;;;;;5083396;28;20054;-79
2022/01/15 03:50:09;;;;;;;7.40;3.40;;;6.20;99.90;;;;;;5088006;28;20045;-79
2022/01/15 03:52:35;;;;;;;7.47;3.97;;;6.20;99.90;;;;;;5078663;28;20071;-79
2022/01/15 03:55:01;;;;;;;9.25;3.85;;;6.20;99.90;;;;;;5079696;28;20610;-79
2022/01/15 03:57:27;;;;;;;6.82;3.40;;;6.20;99.90;;;;;;5081156;28;20071;-79
2022/01/15 03:59:52;;;;;;;7.72;2.90;;;6.20;99.90;;;;;;5076551;28;20053;-77
2022/01/15 04:02:19;;;;;;;6.18;3.30;;;6.30;99.90;;;;;;5077013;28;20052;-78
2022/01/15 04:04:44;;;;;;;8.55;2.97;;;6.20;99.90;;;;;;5076376;28;20048;-78
2022/01/15 04:07:10;;;;;;;6.55;2.95;;;6.20;99.90;;;;;;5069999;28;20051;-77
2022/01/15 04:09:36;;;;;;;7.07;2.90;;;6.20;99.90;;;;;;5098228;28;20133;-78
2022/01/15 04:12:02;;;;;;;7.85;3.38;;;6.20;99.90;;;;;;5095603;28;20072;-78
2022/01/15 04:14:27;;;;;;;5.60;2.75;;;6.30;99.90;;;;;;5079858;28;20492;-79
2022/01/15 04:16:53;;;;;;;5.93;2.85;;;6.30;99.90;;;;;;5077834;28;20048;-79
2022/01/15 04:19:19;;;;;;;6.28;2.70;;;6.30;99.90;;;;;;5087105;28;20684;-79
2022/01/15 04:21:45;;;;;;;8.43;3.03;;;6.30;99.90;;;;;;5079632;28;20060;-79
2022/01/15 04:24:11;;;;;;;6.22;2.90;;;6.20;99.90;;;;;;5077556;28;20534;-79
2022/01/15 04:26:36;;;;;;;7.05;3.10;;;6.20;99.90;;;;;;5078508;28;20056;-79
2022/01/15 04:29:04;;;;;;;7.00;3.30;;;6.20;99.90;;;;;;5076967;28;20049;-79
2022/01/15 04:31:46;;;;;;;6.93;3.35;;;6.20;99.90;;;;;;5081853;28;20059;-80
2022/01/15 04:34:20;;;;;;;7.55;3.20;;;6.20;99.90;;;;;;5077499;28;20041;-80
2022/01/15 04:36:47;;;;;;;6.15;3.08;;;6.10;99.90;;;;;;5063803;28;20044;-79
2022/01/15 04:39:13;;;;;;;6.07;3.33;;;6.10;99.90;;;;;;5079279;28;20586;-79
2022/01/15 04:41:39;;;;;;;6.93;3.22;;;6.00;99.90;;;;;;5096926;28;20039;-79
2022/01/15 04:44:05;;;;;;;5.72;3.00;;;6.00;99.90;;;;;;5096097;28;20040;-79
2022/01/15 04:46:36;;;;;;;7.13;3.15;;;6.10;99.90;;;;;;5089315;28;20104;-79
2022/01/15 04:49:03;;;;;;;6.32;3.17;;;6.10;99.90;;;;;;5078216;28;20059;-78
2022/01/15 04:51:29;;;;;;;5.10;2.95;;;6.10;99.90;;;;;;5077509;28;20092;-79
2022/01/15 04:53:55;;;;;;;6.15;2.75;;;6.10;99.90;;;;;;5078564;28;20051;-79
2022/01/15 04:56:21;;;;;;;7.47;3.15;;;6.10;99.90;;;;;;5085201;28;20056;-78
2022/01/15 04:58:46;;;;;;;9.80;2.97;;;6.00;99.90;;;;;;5082032;28;20036;-78
2022/01/15 05:01:12;;;;;;;8.35;2.95;;;6.10;99.90;;;;;;5083475;28;20051;-79
2022/01/15 05:03:38;;;;;;;6.70;2.85;;;6.10;99.90;;;;;;5083757;28;20029;-78
2022/01/15 05:06:04;;;;;;;6.07;2.88;;;6.10;99.90;;;;;;5078453;28;20071;-78
2022/01/15 05:08:29;;;;;;;5.95;2.55;;;6.10;99.90;;;;;;5081449;28;20044;-78
2022/01/15 05:10:59;;;;;;;6.22;2.80;;;6.10;99.90;;;;;;5082187;28;20135;-79
2022/01/15 05:13:28;;;;;;;6.63;3.00;;;6.10;99.90;;;;;;5081462;28;20052;-79
2022/01/15 05:15:54;;;;;;;5.88;2.55;;;6.10;99.90;;;;;;5081835;28;20054;-78
2022/01/15 05:18:20;;;;;;;6.63;2.90;;;6.10;99.90;;;;;;5081127;28;20044;-77
2022/01/15 05:20:46;;;;;;;7.15;3.00;;;6.10;99.90;;;;;;5093580;28;20132;-77
2022/01/15 05:23:12;;;;;;;8.43;3.22;;;6.10;99.90;;;;;;5101787;28;20063;-77
2022/01/15 05:25:39;;;;;;;6.90;2.97;;;6.10;99.90;;;;;;5082811;28;20052;-78
2022/01/15 05:28:06;;;;;;;5.97;3.13;;;6.10;99.90;;;;;;5081906;28;20045;-78
2022/01/15 05:30:33;;;;;;;6.88;3.20;;;6.00;99.90;;;;;;5081153;28;20079;-78
2022/01/15 05:32:59;;;;;;;8.65;3.88;;;6.00;99.90;;;;;;5083285;28;20049;-78
2022/01/15 05:35:27;;;;;;;10.35;4.00;;;6.00;99.90;;;;;;5080754;28;20044;-78
2022/01/15 05:37:57;;;;;;;8.45;3.95;;;6.00;99.90;;;;;;5084716;28;20040;-78
2022/01/15 05:40:24;;;;;;;8.23;3.75;;;5.90;99.90;;;;;;5092965;28;20048;-78
2022/01/15 05:42:51;;;;;;;8.43;3.47;;;5.90;99.90;;;;;;5078927;28;20048;-78
2022/01/15 05:45:17;;;;;;;8.07;3.63;;;5.90;99.90;;;;;;5081770;28;20083;-78
2022/01/15 05:47:43;;;;;;;8.93;4.28;;;5.90;99.90;;;;;;5080545;28;20044;-78
2022/01/15 05:50:09;;;;;;;10.63;4.63;;;5.90;99.90;;;;;;5087477;28;20083;-78
2022/01/15 05:52:35;;;;;;;9.52;3.97;;;5.90;99.90;;;;;;5113477;28;20044;-79
2022/01/15 05:55:01;;;;;;;8.60;4.18;;;5.90;99.90;;;;;;5095552;28;20039;-78
2022/01/15 05:57:27;;;;;;;8.18;4.30;;;5.90;99.90;;;;;;5087966;27;20060;-78
2022/01/15 05:59:52;;;;;;;9.55;4.53;;;5.90;99.90;;;;;;5080408;28;20075;-78
2022/01/15 06:02:20;;;;;;;9.90;4.45;;;5.80;99.90;;;;;;5100390;28;20048;-79
2022/01/15 06:04:45;;;;;;;9.38;4.50;;;5.80;99.90;;;;;;5092750;28;20066;-79
2022/01/15 06:07:11;;;;;;;8.68;4.13;;;5.90;99.90;;;;;;5087324;28;20059;-79
2022/01/15 06:09:37;;;;;;;9.40;3.97;;;5.90;99.90;;;;;;5079057;28;20052;-79
2022/01/15 06:12:03;;;;;;;10.00;4.20;;;5.90;99.90;;;;;;5080832;28;20036;-79
2022/01/15 06:14:32;;;;;;;7.78;3.30;;;5.90;99.90;;;;;;5089705;28;20052;-79
2022/01/15 06:16:59;;;;;;;7.93;3.47;;;5.90;99.90;;;;;;5079733;28;20041;-80
2022/01/15 06:19:25;;;;;;;7.32;3.45;;;5.90;99.90;;;;;;5089510;28;20090;-80
2022/01/15 06:21:51;;;;;;;7.72;3.50;;;5.80;99.90;;;;;;5100184;28;20051;-79
2022/01/15 06:24:17;;;;;;;8.93;4.15;;;5.90;99.90;;;;;;5089498;28;20082;-79
2022/01/15 06:26:43;;;;;;;9.27;3.85;;;5.80;99.90;;;;;;5097611;28;20036;-79
2022/01/15 06:29:09;;;;;;;9.02;4.55;;;5.80;99.90;;;;;;5090500;28;20053;-79
2022/01/15 06:31:35;;;;;;;8.55;4.18;;;5.90;99.90;;;;;;5084205;28;20051;-79
2022/01/15 06:34:01;;;;;;;9.88;4.32;;;6.00;99.90;;;;;;5107670;28;20082;-79
2022/01/15 06:36:27;;;;;;;10.10;4.65;;;5.80;99.90;;;;;;5078993;28;20052;-79
2022/01/15 06:38:53;;;;;;;9.15;4.05;;;5.80;99.90;;;;;;5078033;28;20083;-79
2022/01/15 06:41:19;;;;;;;9.32;4.13;;;5.80;99.90;;;;;;5079288;28;20052;-79
2022/01/15 06:43:45;;;;;;;9.20;4.35;;;5.80;99.90;;;;;;5078277;28;20040;-79
2022/01/15 06:46:11;;;;;;;8.52;3.90;;;5.80;99.90;;;;;;5078672;28;20051;-79
2022/01/15 06:48:37;;;;;;;8.82;3.80;;;5.80;99.90;;;;;;5080698;28;20036;-79
2022/01/15 06:51:03;;;;;;;9.57;4.25;;;5.80;99.90;;;;;;5085546;28;20044;-79
2022/01/15 06:53:29;;;;;;;8.48;3.97;;;5.90;99.90;;;;;;5080068;28;20085;-79
2022/01/15 06:55:55;;;;;;;8.98;4.35;;;5.80;99.90;;;;;;5077702;28;20044;-79
2022/01/15 06:58:24;;;;;;;8.27;4.00;;;5.90;99.90;;;;;;5080987;28;20597;-79
2022/01/15 07:00:50;;;;;;;11.07;4.03;;;5.90;99.90;;;;;;5079366;28;20436;-78
2022/01/15 07:03:16;;;;;;;10.63;3.90;;;5.80;99.90;;;;;;5077938;28;20041;-79
2022/01/15 07:05:42;;;;;;;9.43;4.35;;;5.90;99.90;;;;;;5077654;28;20102;-79
2022/01/15 07:08:08;;;;;;;10.10;5.20;;;5.90;99.90;;;;;;5083400;28;20118;-79
2022/01/15 07:10:39;;;;;;;9.35;4.82;;;5.80;99.90;;;;;;5099603;28;20055;-79
2022/01/15 07:13:06;;;;;;;11.77;4.78;;;5.90;99.90;;;;;;5081646;28;20062;-79
2022/01/15 07:15:32;;;;;;;10.07;4.97;;;5.90;99.90;;;;;;5079623;28;20044;-79
2022/01/15 07:17:59;;;;;;;10.55;5.10;;;5.90;99.90;;;;;;5093095;28;20068;-79
2022/01/15 07:20:26;;;;;;;13.63;6.35;;;5.90;99.90;;;;;;5080589;28;20049;-79
2022/01/15 07:22:52;;;;;;;12.57;4.90;;;5.90;99.90;;;;;;5077230;28;20077;-79
2022/01/15 07:25:18;;;;;;;12.48;4.57;;;5.90;99.90;;;;;;5087580;28;20165;-79
2022/01/15 07:27:44;;;;;;;9.45;4.30;;;5.90;99.90;;;;;;5091334;28;20044;-79
2022/01/15 07:30:11;;;;;;;13.95;6.30;;;5.90;99.90;;;;;;5070498;28;20050;-79
2022/01/15 07:32:39;;;;;;;12.23;5.90;;;5.90;99.90;;;;;;5090370;28;20056;-79
2022/01/15 07:35:06;;;;;;;13.18;5.53;;;5.90;99.90;;;;;;5082699;28;20047;-80
2022/01/15 07:37:32;;;;;;;11.77;5.28;;;5.90;99.90;;;;;;5086729;28;20108;-80
2022/01/15 07:39:59;;;;;;;15.82;6.93;;;5.80;99.90;;;;;;5079042;28;20040;-80
2022/01/15 07:42:27;;;;;;;14.80;6.43;;;5.90;99.90;;;;;;5078668;28;20036;-80
2022/01/15 07:44:53;;;;;;;16.45;7.15;;;5.80;99.90;;;;;;5079260;28;20129;-79
2022/01/15 07:47:19;;;;;;;15.73;7.80;;;5.80;99.90;;;;;;5078190;28;20044;-79
2022/01/15 07:49:45;;;;;;;17.25;7.97;;;5.80;99.90;;;;;;5082538;28;20052;-79
2022/01/15 07:52:10;;;;;;;19.70;7.95;;;5.80;99.90;;;;;;5077099;28;20047;-79
2022/01/15 07:54:36;;;;;;;17.77;8.45;;;5.80;99.90;;;;;;5085687;28;20072;-80
2022/01/15 07:57:02;;;;;;;17.15;8.23;;;5.70;99.90;;;;;;5119415;28;20044;-80
2022/01/15 07:59:30;;;;;;;14.50;7.53;;;5.70;99.90;;;;;;5089410;28;20055;-81
2022/01/15 08:01:56;;;;;;;13.98;6.40;;;5.70;99.90;;;;;;5098097;28;20086;-80
2022/01/15 08:04:22;;;;;;;11.55;5.10;;;5.70;99.90;;;;;;5077325;28;20074;-81
2022/01/15 08:06:48;;;;;;;11.68;5.45;;;5.70;99.90;;;;;;5079063;28;20074;-81
2022/01/15 08:09:13;;;;;;;9.07;5.05;;;5.70;99.90;;;;;;5076478;28;20056;-80
2022/01/15 08:11:39;;;;;;;11.18;5.28;;;5.70;99.90;;;;;;5080220;28;20063;-80
2022/01/15 08:14:05;;;;;;;12.63;5.03;;;5.70;99.90;;;;;;5081587;28;20094;-80
2022/01/15 08:16:31;;;;;;;10.65;5.32;;;5.70;99.90;;;;;;5060423;28;20059;-80
2022/01/15 08:18:56;;;;;;;13.00;4.90;;;5.70;99.90;;;;;;5080824;28;20045;-80
2022/01/15 08:21:22;;;;;;;11.07;4.97;;;5.60;99.90;;;;;;5080398;28;20109;-78
2022/01/15 08:23:48;;;;;;;11.48;4.95;;;5.60;99.90;;;;;;5097500;28;20056;-80
2022/01/15 08:26:14;;;;;;;11.15;5.60;;;5.60;99.90;;;;;;5085106;28;20056;-80
2022/01/15 08:28:39;;;;;;;11.68;5.40;;;5.60;99.90;;;;;;5086845;28;20072;-80
2022/01/15 08:31:06;;;;;;;11.10;5.57;;;5.70;99.90;;;;;;5086326;28;20048;-80
2022/01/15 08:33:32;;;;;;;12.43;5.80;;;5.60;99.90;;;;;;5088316;28;20090;-81
2022/01/15 08:35:58;;;;;;;14.80;6.28;;;5.60;99.90;;;;;;5078351;28;20104;-80
2022/01/15 08:38:24;;;;;;;13.05;5.95;;;5.60;99.90;;;;;;5091550;28;20075;-81
2022/01/15 08:40:50;;;;;;;13.60;5.88;;;5.60;99.90;;;;;;5096830;28;20043;-81
2022/01/15 08:43:16;;;;;;;16.15;6.78;;;5.60;99.90;;;;;;5095015;28;20163;-81
2022/01/15 08:45:43;;;;;;;15.15;6.07;;;5.60;99.90;;;;;;5101218;28;20047;-81
2022/01/15 08:48:09;;;;;;;16.42;6.90;;;5.60;99.90;;;;;;5096867;28;20361;-81
2022/01/15 08:50:36;;;;;;;14.82;6.35;;;5.60;99.90;;;;;;5114806;28;20062;-81
2022/01/15 08:53:06;;;;;;;19.20;7.03;;;5.60;99.90;;;;;;5100448;28;20049;-82
2022/01/15 08:55:33;;;;;;;20.17;7.80;;;5.70;99.90;;;;;;5088207;28;20086;-81
2022/01/15 08:57:59;;;;;;;15.55;7.18;;;5.70;99.90;;;;;;5092279;28;20578;-81
2022/01/15 09:00:27;;;;;;;13.18;6.43;;;5.70;99.90;;;;;;5099646;28;20062;-81
2022/01/15 09:02:54;;;;;;;18.27;6.75;;;5.70;99.90;;;;;;5102295;28;20066;-81
2022/01/15 09:05:20;;;;;;;14.15;6.85;;;5.70;99.90;;;;;;5086028;28;20044;-81
2022/01/15 09:07:46;;;;;;;13.32;6.03;;;5.70;99.90;;;;;;5081070;28;20083;-81
2022/01/15 09:10:12;;;;;;;14.63;6.47;;;5.60;99.90;;;;;;5080230;28;20052;-81
2022/01/15 09:12:37;;;;;;;14.70;6.57;;;5.70;99.90;;;;;;5081028;28;20218;-81
2022/01/15 09:15:04;;;;;;;14.15;6.75;;;5.60;99.90;;;;;;5090264;28;20040;-82
2022/01/15 09:17:29;;;;;;;13.02;6.05;;;5.60;99.90;;;;;;5097442;28;20104;-81
2022/01/15 09:19:55;;;;;;;12.23;6.25;;;5.60;99.90;;;;;;5097010;28;20093;-81
2022/01/15 09:22:21;;;;;;;15.30;6.22;;;5.50;99.90;;;;;;5100650;28;20572;-80
2022/01/15 09:24:47;;;;;;;13.02;5.82;;;5.60;99.90;;;;;;5075474;28;20833;-80
2022/01/15 09:30:15;;;;;;;10.73;5.45;;;5.70;99.90;;;;;;5080673;28;20049;-81
2022/01/15 09:32:49;;;;;;;15.60;5.68;;;5.60;99.90;;;;;;5111477;28;20152;-79
2022/01/15 09:35:20;;;;;;;10.30;5.03;;;5.60;99.90;;;;;;5100954;28;20051;-81
2022/01/15 09:37:47;;;;;;;12.38;5.78;;;5.60;99.90;;;;;;5100326;28;20048;-81
2022/01/15 09:40:13;;;;;;;11.80;5.68;;;5.70;99.90;;;;;;5076953;28;20052;-80
2022/01/15 09:42:40;;;;;;;12.05;6.43;;;5.60;99.90;;;;;;5079248;28;20068;-80
2022/01/15 09:45:09;;;;;;;12.10;6.47;;;5.60;99.90;;;;;;5081186;28;20052;-80
2022/01/15 09:47:36;;;;;;;14.02;7.68;;;5.60;99.90;;;;;;5082546;28;20166;-80
2022/01/15 09:50:06;;;;;;;13.50;7.78;;;5.60;99.90;;;;;;5101195;28;20052;-80
2022/01/15 09:52:32;;;;;;;17.27;8.43;;;5.60;99.90;;;;;;5100504;28;20051;-80
2022/01/15 09:54:59;;;;;;;13.02;6.70;;;5.60;99.90;;;;;;5108511;28;20035;-80
2022/01/15 09:57:25;;;;;;;12.63;7.03;;;5.60;99.90;;;;;;5120178;28;20035;-81
2022/01/15 09:59:51;;;;;;;14.48;7.60;;;5.60;99.90;;;;;;5109323;28;20132;-80
2022/01/15 10:02:16;;;;;;;14.38;8.18;;;5.60;99.90;;;;;;5091759;28;20078;-81
2022/01/15 10:04:42;;;;;;;13.30;7.50;;;5.60;99.90;;;;;;5087371;28;20040;-81
2022/01/15 10:07:13;;;;;;;14.43;7.40;;;5.60;99.90;;;;;;5073765;28;20143;-81
2022/01/15 10:09:39;;;;;;;13.38;7.70;;;5.60;99.90;;;;;;5097095;28;20114;-77
2022/01/15 10:12:05;;;;;;;15.23;8.23;;;5.50;99.90;;;;;;5100352;28;20744;-77
2022/01/15 10:14:32;;;;;;;15.75;8.48;;;5.60;99.90;;;;;;5110248;28;20062;-77
2022/01/15 10:17:00;;;;;;;16.75;9.40;;;5.60;99.90;;;;;;5119165;28;20076;-77
2022/01/15 10:19:32;;;;;;;18.17;9.57;;;5.60;99.90;;;;;;5121156;28;20035;-78
2022/01/15 10:22:04;;;;;;;19.70;10.40;;;5.60;99.90;;;;;;5112174;28;20048;-76
2022/01/15 10:24:30;;;;;;;17.63;8.63;;;5.60;99.90;;;;;;5103295;28;20370;-78
2022/01/15 10:26:56;;;;;;;20.08;10.32;;;5.60;99.90;;;;;;5100726;28;20096;-76
2022/01/15 10:29:22;;;;;;;20.23;9.93;;;5.60;99.90;;;;;;5099777;28;20048;-77
2022/01/15 10:31:47;;;;;;;19.40;9.52;;;5.60;99.90;;;;;;5086957;28;20434;-76
2022/01/15 10:34:32;;;;;;;19.17;9.23;;;5.60;99.90;;;;;;5119776;28;20051;-77
2022/01/15 10:37:13;;;;;;;19.25;9.13;;;5.60;99.90;;;;;;5119954;28;20055;-76
2022/01/15 10:39:40;;;;;;;20.70;9.90;;;5.60;99.90;;;;;;5120690;28;20088;-76
2022/01/15 10:42:19;;;;;;;19.80;10.30;;;5.60;99.90;;;;;;5100477;28;20047;-78
2022/01/15 10:44:46;;;;;;;22.70;10.73;;;5.60;99.90;;;;;;5100337;28;20450;-76
2022/01/15 10:47:15;;;;;;;21.40;11.05;;;5.50;99.90;;;;;;5099703;28;20044;-76
2022/01/15 10:49:42;;;;;;;28.05;11.68;;;5.50;99.90;;;;;;5100304;28;20048;-77
2022/01/15 10:52:23;;;;;;;29.50;13.55;;;5.50;99.90;;;;;;5099473;28;20157;-78
2022/01/15 10:55:20;;;;;;;22.88;10.95;;;5.50;99.90;;;;;;5098667;28;20086;-78
2022/01/15 10:57:57;;;;;;;24.65;12.40;;;5.50;99.90;;;;;;5090788;28;20080;-77
2022/01/15 11:00:51;;;;;;;24.00;10.95;;;5.40;99.90;;;;;;5096827;28;20052;-77
2022/01/15 11:03:17;;;;;;;24.55;11.63;;;5.40;99.90;;;;;;5097406;28;20064;-78
2022/01/15 11:05:47;;;;;;;25.73;11.40;;;5.40;99.90;;;;;;5099238;28;20040;-78
2022/01/15 11:08:22;;;;;;;22.58;10.65;;;5.40;99.90;;;;;;5098720;28;20044;-77
2022/01/15 11:10:51;;;;;;;23.52;10.80;;;5.40;99.90;;;;;;5098774;28;20075;-77
2022/01/15 11:13:19;;;;;;;24.35;11.20;;;5.40;99.90;;;;;;5097326;28;20111;-77
2022/01/15 11:15:48;;;;;;;23.05;11.63;;;5.30;99.90;;;;;;5099858;28;20036;-77
2022/01/15 11:18:19;;;;;;;24.48;10.73;;;5.40;99.90;;;;;;5102956;28;20062;-77
2022/01/15 11:20:48;;;;;;;23.38;10.65;;;5.40;99.90;;;;;;5119093;28;20588;-77
2022/01/15 11:23:14;;;;;;;20.58;10.05;;;5.40;99.90;;;;;;5097545;28;20051;-76
2022/01/15 11:25:43;;;;;;;19.35;9.35;;;5.50;99.90;;;;;;5096855;28;20056;-76
2022/01/15 11:28:09;;;;;;;20.83;10.52;;;5.40;99.90;;;;;;5099397;28;20236;-77
2022/01/15 11:30:35;;;;;;;20.80;9.68;;;5.40;99.90;;;;;;5097147;28;20044;-74
2022/01/15 11:33:02;;;;;;;15.93;8.73;;;5.30;99.90;;;;;;5113729;28;20085;-74
2022/01/15 11:35:44;;;;;;;15.15;7.78;;;5.50;99.90;;;;;;5117391;28;20449;-77
2022/01/15 11:38:10;;;;;;;15.75;8.10;;;5.30;99.90;;;;;;5119041;28;20058;-76
2022/01/15 11:40:39;;;;;;;16.80;8.95;;;5.20;99.90;;;;;;5118170;28;20040;-77
2022/01/15 11:43:24;;;;;;;17.27;8.68;;;5.10;99.90;;;;;;5118504;28;20425;-76
2022/01/15 11:45:53;;;;;;;15.45;7.45;;;5.20;99.90;;;;;;5118464;28;20063;-77
2022/01/15 11:48:21;;;;;;;17.05;7.78;;;5.20;99.90;;;;;;5114862;27;20077;-75
2022/01/15 11:51:13;;;;;;;13.80;7.72;;;5.20;99.90;;;;;;5097583;28;20040;-76
2022/01/15 11:53:48;;;;;;;16.02;8.00;;;5.20;99.90;;;;;;5098974;28;20052;-78
2022/01/15 11:56:21;;;;;;;13.52;7.93;;;5.20;99.90;;;;;;5116545;28;20056;-78
2022/01/15 11:58:47;;;;;;;13.70;7.80;;;5.20;99.90;;;;;;5119383;28;20099;-77
2022/01/15 12:01:43;;;;;;;14.05;7.95;;;5.30;99.90;;;;;;5119179;28;20109;-78
2022/01/15 12:04:31;;;;;;;11.65;6.10;;;5.30;99.90;;;;;;5118298;28;20091;-77
2022/01/15 12:07:05;;;;;;;14.80;7.30;;;5.20;99.90;;;;;;5119702;28;20055;-77
2022/01/15 12:09:34;;;;;;;14.30;7.72;;;5.20;99.90;;;;;;5117716;28;20054;-76
2022/01/15 12:12:00;;;;;;;13.45;7.80;;;5.20;99.90;;;;;;5089716;28;20050;-76
2022/01/15 12:14:49;;;;;;;12.75;7.13;;;5.20;99.90;;;;;;5095530;28;20131;-76
2022/01/15 12:17:29;;;;;;;16.55;8.65;;;5.20;99.90;;;;;;5104595;28;20052;-76
2022/01/15 12:19:56;;;;;;;16.05;8.45;;;5.20;99.90;;;;;;5105251;28;20100;-78
2022/01/15 12:22:43;;;;;;;13.63;8.10;;;5.20;99.90;;;;;;5103447;28;20048;-77
2022/01/15 12:25:16;;;;;;;14.48;8.43;;;5.20;99.90;;;;;;5103113;28;20127;-77
2022/01/15 12:28:03;;;;;;;15.27;8.55;;;5.20;99.90;;;;;;5104499;28;20433;-78
2022/01/15 12:30:37;;;;;;;15.68;8.52;;;5.20;99.90;;;;;;5104424;28;20649;-79
2022/01/15 12:33:05;;;;;;;16.02;8.23;;;5.20;99.90;;;;;;5104143;28;20059;-78
2022/01/15 12:35:37;;;;;;;15.48;7.55;;;5.30;99.90;;;;;;5103158;28;20066;-79
2022/01/15 12:38:15;;;;;;;15.88;8.35;;;5.30;99.90;;;;;;5104528;28;20047;-78
2022/01/15 12:40:41;;;;;;;17.80;9.73;;;5.30;99.90;;;;;;5103747;28;20052;-79
2022/01/15 12:43:20;;;;;;;17.45;9.13;;;5.30;99.90;;;;;;5104131;28;20055;-78
2022/01/15 12:45:48;;;;;;;19.17;9.77;;;5.30;99.90;;;;;;5104160;28;20062;-77
2022/01/15 12:48:19;;;;;;;17.23;9.10;;;5.20;99.90;;;;;;5102926;28;20488;-76
2022/01/15 12:50:57;;;;;;;15.73;8.40;;;5.20;99.90;;;;;;5104878;28;20048;-78
2022/01/15 12:53:25;;;;;;;19.42;9.80;;;5.20;99.90;;;;;;5103058;28;20063;-77
2022/01/15 12:55:53;;;;;;;18.65;10.65;;;5.20;99.90;;;;;;5117423;28;20044;-78
2022/01/15 12:58:22;;;;;;;18.33;9.70;;;5.20;99.90;;;;;;5124422;28;20052;-79
2022/01/15 13:00:48;;;;;;;15.50;8.93;;;5.20;99.90;;;;;;5123987;28;20039;-79
2022/01/15 13:03:19;;;;;;;22.17;9.48;;;5.30;99.90;;;;;;5124483;27;20115;-79
2022/01/15 13:05:56;;;;;;;20.10;10.25;;;5.30;99.90;;;;;;5123296;28;20047;-79
2022/01/15 13:08:35;;;;;;;20.13;10.40;;;5.30;99.90;;;;;;5124760;27;20043;-79
2022/01/15 13:11:06;;;;;;;16.08;8.80;;;5.30;99.90;;;;;;5125767;27;20508;-78
2022/01/15 13:13:38;;;;;;;17.35;9.43;;;5.30;99.90;;;;;;5124782;27;20027;-78
2022/01/15 13:16:08;;;;;;;16.92;9.25;;;5.30;99.90;;;;;;5123624;28;20051;-79
2022/01/15 13:18:39;;;;;;;17.70;10.52;;;5.30;99.90;;;;;;5124047;28;20056;-78
2022/01/15 13:21:11;;;;;;;17.30;9.50;;;5.40;99.90;;;;;;5123537;28;20043;-79
2022/01/15 13:23:58;;;;;;;15.98;9.75;;;5.40;99.90;;;;;;5125372;27;20044;-78